Sunny Bay, Washington
Current Conditions -  °F | °C
As of 4:53 PM on Wednesday 22 Oct 2014 (Local Time) from KTIW Reporting Station
Light Rain Light Rain  
Wind Chill: 56°   Ceiling: 8000
Heat Index: 56°   Visibility: 8mi
Dew Point: 53°   Wind: 5mph
Humidity: 90%   Direction: NA
Pressure: 29.6"   Gusts: NA
Location:  47.2986°N, 122.616°W
Report Text: KTIW 222353Z VRB04KT 8SM -RA OVC080 13/12 A2960 RMK AO2 SLP024 P0009 60046 T01330117 10139 20128 57026
Loading
Personal Weather Stations






























Interactive Weather Map
Tropical Storm Tracking
New forecast layout! Learn more

10-Day Weather Forecast

Advertisements
Track Severe Weather on mobile